sensor_id;sensor_type;location;lat;lon;timestamp;P1;durP1;ratioP1;P2;durP2;ratioP2
48765;SDS011;34570;51.836;5.002;2022-08-19T00:02:21;14.85;;;8.65;;
48765;SDS011;34570;51.836;5.002;2022-08-19T00:04:46;13.95;;;8.50;;
48765;SDS011;34570;51.836;5.002;2022-08-19T00:07:13;15.50;;;8.20;;
48765;SDS011;34570;51.836;5.002;2022-08-19T00:09:39;14.52;;;8.45;;
48765;SDS011;34570;51.836;5.002;2022-08-19T00:12:04;16.15;;;9.07;;
48765;SDS011;34570;51.836;5.002;2022-08-19T00:14:30;16.25;;;8.70;;
48765;SDS011;34570;51.836;5.002;2022-08-19T00:16:56;14.63;;;8.40;;
48765;SDS011;34570;51.836;5.002;2022-08-19T00:19:22;18.75;;;9.63;;
48765;SDS011;34570;51.836;5.002;2022-08-19T00:21:48;19.23;;;9.23;;
48765;SDS011;34570;51.836;5.002;2022-08-19T00:24:14;15.90;;;10.45;;
48765;SDS011;34570;51.836;5.002;2022-08-19T00:26:40;17.63;;;10.18;;
48765;SDS011;34570;51.836;5.002;2022-08-19T00:29:07;17.85;;;9.50;;
48765;SDS011;34570;51.836;5.002;2022-08-19T00:31:33;17.60;;;9.93;;
48765;SDS011;34570;51.836;5.002;2022-08-19T00:33:58;18.98;;;10.48;;
48765;SDS011;34570;51.836;5.002;2022-08-19T00:36:24;17.33;;;10.40;;
48765;SDS011;34570;51.836;5.002;2022-08-19T00:38:50;18.80;;;10.93;;
48765;SDS011;34570;51.836;5.002;2022-08-19T00:41:18;16.58;;;10.50;;
48765;SDS011;34570;51.836;5.002;2022-08-19T00:44:03;18.98;;;11.38;;
48765;SDS011;34570;51.836;5.002;2022-08-19T00:46:29;20.20;;;11.77;;
48765;SDS011;34570;51.836;5.002;2022-08-19T00:48:55;20.38;;;12.43;;
48765;SDS011;34570;51.836;5.002;2022-08-19T00:51:23;25.15;;;12.32;;
48765;SDS011;34570;51.836;5.002;2022-08-19T00:53:50;21.73;;;11.43;;
48765;SDS011;34570;51.836;5.002;2022-08-19T00:56:15;21.08;;;11.90;;
48765;SDS011;34570;51.836;5.002;2022-08-19T00:58:42;22.83;;;12.30;;
48765;SDS011;34570;51.836;5.002;2022-08-19T01:01:08;27.63;;;12.65;;
48765;SDS011;34570;51.836;5.002;2022-08-19T01:03:34;24.55;;;13.15;;
48765;SDS011;34570;51.836;5.002;2022-08-19T01:05:59;28.38;;;12.93;;
48765;SDS011;34570;51.836;5.002;2022-08-19T01:08:25;23.55;;;13.38;;
48765;SDS011;34570;51.836;5.002;2022-08-19T01:10:55;24.40;;;12.15;;
48765;SDS011;34570;51.836;5.002;2022-08-19T01:13:22;19.85;;;11.38;;
48765;SDS011;34570;51.836;5.002;2022-08-19T01:15:50;20.42;;;11.75;;
48765;SDS011;34570;51.836;5.002;2022-08-19T01:18:16;20.90;;;11.45;;
48765;SDS011;34570;51.836;5.002;2022-08-19T01:20:43;23.33;;;11.88;;
48765;SDS011;34570;51.836;5.002;2022-08-19T01:23:08;22.67;;;12.40;;
48765;SDS011;34570;51.836;5.002;2022-08-19T01:25:42;20.48;;;12.30;;
48765;SDS011;34570;51.836;5.002;2022-08-19T01:28:14;19.38;;;11.45;;
48765;SDS011;34570;51.836;5.002;2022-08-19T01:30:40;22.85;;;11.65;;
48765;SDS011;34570;51.836;5.002;2022-08-19T01:33:05;21.70;;;11.88;;
48765;SDS011;34570;51.836;5.002;2022-08-19T01:35:31;22.60;;;11.25;;
48765;SDS011;34570;51.836;5.002;2022-08-19T01:38:00;22.58;;;11.98;;
48765;SDS011;34570;51.836;5.002;2022-08-19T01:40:28;22.45;;;11.73;;
48765;SDS011;34570;51.836;5.002;2022-08-19T01:42:54;22.85;;;11.95;;
48765;SDS011;34570;51.836;5.002;2022-08-19T01:45:20;21.70;;;12.73;;
48765;SDS011;34570;51.836;5.002;2022-08-19T01:47:46;22.17;;;12.40;;
48765;SDS011;34570;51.836;5.002;2022-08-19T01:50:11;24.08;;;12.80;;
48765;SDS011;34570;51.836;5.002;2022-08-19T01:52:39;26.15;;;12.95;;
48765;SDS011;34570;51.836;5.002;2022-08-19T01:55:05;27.95;;;13.85;;
48765;SDS011;34570;51.836;5.002;2022-08-19T01:57:32;28.65;;;14.00;;
48765;SDS011;34570;51.836;5.002;2022-08-19T01:59:58;29.27;;;14.10;;
48765;SDS011;34570;51.836;5.002;2022-08-19T02:02:24;27.15;;;13.48;;
48765;SDS011;34570;51.836;5.002;2022-08-19T02:04:50;28.38;;;14.65;;
48765;SDS011;34570;51.836;5.002;2022-08-19T02:07:18;28.13;;;15.25;;
48765;SDS011;34570;51.836;5.002;2022-08-19T02:09:43;30.33;;;14.10;;
48765;SDS011;34570;51.836;5.002;2022-08-19T02:12:09;29.33;;;14.70;;
48765;SDS011;34570;51.836;5.002;2022-08-19T02:14:35;27.05;;;14.07;;
48765;SDS011;34570;51.836;5.002;2022-08-19T02:17:01;28.52;;;14.32;;
48765;SDS011;34570;51.836;5.002;2022-08-19T02:19:26;31.50;;;13.90;;
48765;SDS011;34570;51.836;5.002;2022-08-19T02:21:52;28.42;;;14.18;;
48765;SDS011;34570;51.836;5.002;2022-08-19T02:24:18;26.15;;;14.18;;
48765;SDS011;34570;51.836;5.002;2022-08-19T02:26:43;30.40;;;14.15;;
48765;SDS011;34570;51.836;5.002;2022-08-19T02:29:09;28.60;;;14.23;;
48765;SDS011;34570;51.836;5.002;2022-08-19T02:31:34;30.20;;;15.07;;
48765;SDS011;34570;51.836;5.002;2022-08-19T02:34:00;27.67;;;14.68;;
48765;SDS011;34570;51.836;5.002;2022-08-19T02:36:26;26.02;;;13.60;;
48765;SDS011;34570;51.836;5.002;2022-08-19T02:38:53;29.23;;;13.70;;
48765;SDS011;34570;51.836;5.002;2022-08-19T02:41:23;27.30;;;13.95;;
48765;SDS011;34570;51.836;5.002;2022-08-19T02:43:48;24.90;;;13.85;;
48765;SDS011;34570;51.836;5.002;2022-08-19T02:46:21;25.83;;;14.05;;
48765;SDS011;34570;51.836;5.002;2022-08-19T02:48:48;27.23;;;13.88;;
48765;SDS011;34570;51.836;5.002;2022-08-19T02:51:21;27.23;;;13.52;;
48765;SDS011;34570;51.836;5.002;2022-08-19T02:53:46;28.77;;;13.63;;
48765;SDS011;34570;51.836;5.002;2022-08-19T02:56:12;28.77;;;14.10;;
48765;SDS011;34570;51.836;5.002;2022-08-19T02:58:37;25.20;;;13.60;;
48765;SDS011;34570;51.836;5.002;2022-08-19T03:01:03;29.60;;;14.40;;
48765;SDS011;34570;51.836;5.002;2022-08-19T03:03:28;24.70;;;13.93;;
48765;SDS011;34570;51.836;5.002;2022-08-19T03:06:09;25.73;;;13.95;;
48765;SDS011;34570;51.836;5.002;2022-08-19T03:08:35;30.67;;;14.98;;
48765;SDS011;34570;51.836;5.002;2022-08-19T03:11:00;27.83;;;14.48;;
48765;SDS011;34570;51.836;5.002;2022-08-19T03:13:26;31.15;;;14.07;;
48765;SDS011;34570;51.836;5.002;2022-08-19T03:15:51;34.00;;;15.27;;
48765;SDS011;34570;51.836;5.002;2022-08-19T03:18:17;28.05;;;13.50;;
48765;SDS011;34570;51.836;5.002;2022-08-19T03:20:43;28.13;;;15.50;;
48765;SDS011;34570;51.836;5.002;2022-08-19T03:23:09;34.92;;;15.98;;
48765;SDS011;34570;51.836;5.002;2022-08-19T03:25:42;32.15;;;15.63;;
48765;SDS011;34570;51.836;5.002;2022-08-19T03:28:11;32.30;;;15.23;;
48765;SDS011;34570;51.836;5.002;2022-08-19T03:30:37;28.15;;;14.80;;
48765;SDS011;34570;51.836;5.002;2022-08-19T03:33:05;31.05;;;15.93;;
48765;SDS011;34570;51.836;5.002;2022-08-19T03:35:30;37.13;;;16.63;;
48765;SDS011;34570;51.836;5.002;2022-08-19T03:37:56;32.92;;;15.25;;
48765;SDS011;34570;51.836;5.002;2022-08-19T03:40:23;31.00;;;15.02;;
48765;SDS011;34570;51.836;5.002;2022-08-19T03:42:48;35.60;;;15.95;;
48765;SDS011;34570;51.836;5.002;2022-08-19T03:45:15;39.13;;;16.20;;
48765;SDS011;34570;51.836;5.002;2022-08-19T03:47:40;33.60;;;17.67;;
48765;SDS011;34570;51.836;5.002;2022-08-19T03:50:06;39.83;;;18.00;;
48765;SDS011;34570;51.836;5.002;2022-08-19T03:52:31;35.47;;;18.35;;
48765;SDS011;34570;51.836;5.002;2022-08-19T03:54:57;36.85;;;18.13;;
48765;SDS011;34570;51.836;5.002;2022-08-19T03:57:22;39.88;;;18.80;;
48765;SDS011;34570;51.836;5.002;2022-08-19T03:59:48;38.42;;;19.20;;
48765;SDS011;34570;51.836;5.002;2022-08-19T04:02:13;39.85;;;20.35;;
48765;SDS011;34570;51.836;5.002;2022-08-19T04:04:40;37.33;;;20.17;;
48765;SDS011;34570;51.836;5.002;2022-08-19T04:07:05;43.35;;;21.15;;
48765;SDS011;34570;51.836;5.002;2022-08-19T04:09:32;48.38;;;21.77;;
48765;SDS011;34570;51.836;5.002;2022-08-19T04:11:58;47.05;;;22.10;;
48765;SDS011;34570;51.836;5.002;2022-08-19T04:14:24;53.80;;;24.00;;
48765;SDS011;34570;51.836;5.002;2022-08-19T04:16:50;50.85;;;23.23;;
48765;SDS011;34570;51.836;5.002;2022-08-19T04:19:17;50.40;;;23.55;;
48765;SDS011;34570;51.836;5.002;2022-08-19T04:21:43;48.08;;;23.45;;
48765;SDS011;34570;51.836;5.002;2022-08-19T04:24:10;51.28;;;22.48;;
48765;SDS011;34570;51.836;5.002;2022-08-19T04:26:36;57.65;;;23.90;;
48765;SDS011;34570;51.836;5.002;2022-08-19T04:31:55;62.70;;;26.40;;
48765;SDS011;34570;51.836;5.002;2022-08-19T04:34:22;56.63;;;24.23;;
48765;SDS011;34570;51.836;5.002;2022-08-19T04:36:48;58.38;;;25.15;;
48765;SDS011;34570;51.836;5.002;2022-08-19T04:39:17;61.22;;;26.30;;
48765;SDS011;34570;51.836;5.002;2022-08-19T04:41:43;52.72;;;24.20;;
48765;SDS011;34570;51.836;5.002;2022-08-19T04:44:27;63.65;;;26.30;;
48765;SDS011;34570;51.836;5.002;2022-08-19T04:46:55;64.80;;;26.85;;
48765;SDS011;34570;51.836;5.002;2022-08-19T04:49:21;50.75;;;23.42;;
48765;SDS011;34570;51.836;5.002;2022-08-19T04:51:47;61.88;;;26.15;;
48765;SDS011;34570;51.836;5.002;2022-08-19T04:54:15;70.55;;;27.67;;
48765;SDS011;34570;51.836;5.002;2022-08-19T04:56:40;63.33;;;27.10;;
48765;SDS011;34570;51.836;5.002;2022-08-19T04:59:06;59.10;;;24.60;;
48765;SDS011;34570;51.836;5.002;2022-08-19T05:01:32;65.90;;;25.75;;
48765;SDS011;34570;51.836;5.002;2022-08-19T05:03:58;67.07;;;28.90;;
48765;SDS011;34570;51.836;5.002;2022-08-19T05:06:24;67.72;;;27.65;;
48765;SDS011;34570;51.836;5.002;2022-08-19T05:08:50;71.32;;;28.13;;
48765;SDS011;34570;51.836;5.002;2022-08-19T05:11:17;65.30;;;26.73;;
48765;SDS011;34570;51.836;5.002;2022-08-19T05:13:43;71.25;;;29.88;;
48765;SDS011;34570;51.836;5.002;2022-08-19T05:16:09;75.95;;;29.95;;
48765;SDS011;34570;51.836;5.002;2022-08-19T05:18:35;70.68;;;27.60;;
48765;SDS011;34570;51.836;5.002;2022-08-19T05:21:19;66.20;;;27.65;;
48765;SDS011;34570;51.836;5.002;2022-08-19T05:24:04;75.05;;;29.80;;
48765;SDS011;34570;51.836;5.002;2022-08-19T05:26:34;80.28;;;28.38;;
48765;SDS011;34570;51.836;5.002;2022-08-19T05:29:00;71.38;;;27.80;;
48765;SDS011;34570;51.836;5.002;2022-08-19T05:31:25;78.13;;;28.40;;
48765;SDS011;34570;51.836;5.002;2022-08-19T05:33:51;65.45;;;26.92;;
48765;SDS011;34570;51.836;5.002;2022-08-19T05:36:16;75.43;;;26.17;;
48765;SDS011;34570;51.836;5.002;2022-08-19T05:38:44;69.75;;;26.15;;
48765;SDS011;34570;51.836;5.002;2022-08-19T05:41:09;62.38;;;25.75;;
48765;SDS011;34570;51.836;5.002;2022-08-19T05:43:35;66.95;;;26.55;;
48765;SDS011;34570;51.836;5.002;2022-08-19T05:46:02;61.13;;;24.95;;
48765;SDS011;34570;51.836;5.002;2022-08-19T05:48:28;59.83;;;25.23;;
48765;SDS011;34570;51.836;5.002;2022-08-19T05:50:53;60.20;;;25.17;;
48765;SDS011;34570;51.836;5.002;2022-08-19T05:53:19;61.85;;;24.35;;
48765;SDS011;34570;51.836;5.002;2022-08-19T05:55:44;63.40;;;24.77;;
48765;SDS011;34570;51.836;5.002;2022-08-19T05:58:10;59.80;;;24.92;;
48765;SDS011;34570;51.836;5.002;2022-08-19T06:00:36;63.72;;;25.35;;
48765;SDS011;34570;51.836;5.002;2022-08-19T06:03:02;58.03;;;23.70;;
48765;SDS011;34570;51.836;5.002;2022-08-19T06:05:31;53.63;;;22.63;;
48765;SDS011;34570;51.836;5.002;2022-08-19T06:07:57;54.75;;;23.35;;
48765;SDS011;34570;51.836;5.002;2022-08-19T06:10:23;54.35;;;22.88;;
48765;SDS011;34570;51.836;5.002;2022-08-19T06:12:49;60.78;;;23.90;;
48765;SDS011;34570;51.836;5.002;2022-08-19T06:15:15;54.65;;;22.60;;
48765;SDS011;34570;51.836;5.002;2022-08-19T06:17:40;51.80;;;22.77;;
48765;SDS011;34570;51.836;5.002;2022-08-19T06:20:08;55.20;;;23.40;;
48765;SDS011;34570;51.836;5.002;2022-08-19T06:22:38;55.80;;;23.00;;
48765;SDS011;34570;51.836;5.002;2022-08-19T06:25:03;55.00;;;23.02;;
48765;SDS011;34570;51.836;5.002;2022-08-19T06:27:29;48.47;;;22.77;;
48765;SDS011;34570;51.836;5.002;2022-08-19T06:29:56;48.97;;;22.63;;
48765;SDS011;34570;51.836;5.002;2022-08-19T06:32:21;51.13;;;23.20;;
48765;SDS011;34570;51.836;5.002;2022-08-19T06:34:47;50.22;;;22.17;;
48765;SDS011;34570;51.836;5.002;2022-08-19T06:37:13;50.85;;;22.65;;
48765;SDS011;34570;51.836;5.002;2022-08-19T06:39:39;46.10;;;21.33;;
48765;SDS011;34570;51.836;5.002;2022-08-19T06:42:05;45.85;;;19.98;;
48765;SDS011;34570;51.836;5.002;2022-08-19T06:44:35;40.17;;;19.02;;
48765;SDS011;34570;51.836;5.002;2022-08-19T06:47:02;48.53;;;21.38;;
48765;SDS011;34570;51.836;5.002;2022-08-19T06:49:27;50.78;;;20.90;;
48765;SDS011;34570;51.836;5.002;2022-08-19T06:51:56;45.72;;;19.70;;
48765;SDS011;34570;51.836;5.002;2022-08-19T06:54:22;46.47;;;21.42;;
48765;SDS011;34570;51.836;5.002;2022-08-19T06:56:48;49.83;;;22.17;;
48765;SDS011;34570;51.836;5.002;2022-08-19T06:59:18;50.65;;;21.95;;
48765;SDS011;34570;51.836;5.002;2022-08-19T07:01:45;47.17;;;20.08;;
48765;SDS011;34570;51.836;5.002;2022-08-19T07:04:13;48.92;;;20.73;;
48765;SDS011;34570;51.836;5.002;2022-08-19T07:06:39;46.47;;;22.02;;
48765;SDS011;34570;51.836;5.002;2022-08-19T07:09:05;45.95;;;21.63;;
48765;SDS011;34570;51.836;5.002;2022-08-19T07:11:31;46.15;;;19.58;;
48765;SDS011;34570;51.836;5.002;2022-08-19T07:13:58;38.30;;;17.83;;
48765;SDS011;34570;51.836;5.002;2022-08-19T07:16:23;34.65;;;17.30;;
48765;SDS011;34570;51.836;5.002;2022-08-19T07:18:49;44.17;;;19.45;;
48765;SDS011;34570;51.836;5.002;2022-08-19T07:21:19;41.97;;;20.13;;
48765;SDS011;34570;51.836;5.002;2022-08-19T07:23:45;44.05;;;20.73;;
48765;SDS011;34570;51.836;5.002;2022-08-19T07:28:36;47.13;;;20.75;;
48765;SDS011;34570;51.836;5.002;2022-08-19T07:31:07;46.60;;;20.88;;
48765;SDS011;34570;51.836;5.002;2022-08-19T07:33:33;46.38;;;19.70;;
48765;SDS011;34570;51.836;5.002;2022-08-19T07:36:01;39.05;;;18.85;;
48765;SDS011;34570;51.836;5.002;2022-08-19T07:38:26;45.15;;;19.85;;
48765;SDS011;34570;51.836;5.002;2022-08-19T07:40:52;43.80;;;19.85;;
48765;SDS011;34570;51.836;5.002;2022-08-19T07:43:17;54.25;;;20.02;;
48765;SDS011;34570;51.836;5.002;2022-08-19T07:45:48;42.22;;;20.63;;
48765;SDS011;34570;51.836;5.002;2022-08-19T07:48:13;45.30;;;19.95;;
48765;SDS011;34570;51.836;5.002;2022-08-19T07:50:39;51.13;;;21.60;;
48765;SDS011;34570;51.836;5.002;2022-08-19T07:53:05;51.70;;;21.85;;
48765;SDS011;34570;51.836;5.002;2022-08-19T07:55:30;51.00;;;20.75;;
48765;SDS011;34570;51.836;5.002;2022-08-19T07:57:56;43.75;;;20.95;;
48765;SDS011;34570;51.836;5.002;2022-08-19T08:00:22;48.28;;;21.30;;
48765;SDS011;34570;51.836;5.002;2022-08-19T08:02:47;47.67;;;21.73;;
48765;SDS011;34570;51.836;5.002;2022-08-19T08:05:13;41.88;;;18.08;;
48765;SDS011;34570;51.836;5.002;2022-08-19T08:07:57;43.65;;;19.73;;
48765;SDS011;34570;51.836;5.002;2022-08-19T08:10:41;48.67;;;21.02;;
48765;SDS011;34570;51.836;5.002;2022-08-19T08:13:06;46.60;;;19.30;;
48765;SDS011;34570;51.836;5.002;2022-08-19T08:15:32;47.90;;;18.02;;
48765;SDS011;34570;51.836;5.002;2022-08-19T08:17:57;51.00;;;21.40;;
48765;SDS011;34570;51.836;5.002;2022-08-19T08:20:23;46.83;;;20.10;;
48765;SDS011;34570;51.836;5.002;2022-08-19T08:22:49;51.03;;;20.45;;
48765;SDS011;34570;51.836;5.002;2022-08-19T08:25:33;44.38;;;19.90;;
48765;SDS011;34570;51.836;5.002;2022-08-19T08:28:00;49.70;;;20.60;;
48765;SDS011;34570;51.836;5.002;2022-08-19T08:30:27;53.00;;;21.23;;
48765;SDS011;34570;51.836;5.002;2022-08-19T08:32:52;46.45;;;20.35;;
48765;SDS011;34570;51.836;5.002;2022-08-19T08:35:19;54.72;;;21.02;;
48765;SDS011;34570;51.836;5.002;2022-08-19T08:37:46;50.92;;;20.60;;
48765;SDS011;34570;51.836;5.002;2022-08-19T08:40:20;53.47;;;20.70;;
48765;SDS011;34570;51.836;5.002;2022-08-19T08:42:49;48.10;;;20.17;;
48765;SDS011;34570;51.836;5.002;2022-08-19T08:45:17;46.67;;;18.95;;
48765;SDS011;34570;51.836;5.002;2022-08-19T08:47:44;48.00;;;19.23;;
48765;SDS011;34570;51.836;5.002;2022-08-19T08:50:13;47.15;;;18.75;;
48765;SDS011;34570;51.836;5.002;2022-08-19T08:52:45;50.65;;;18.90;;
48765;SDS011;34570;51.836;5.002;2022-08-19T08:55:12;52.00;;;20.27;;
48765;SDS011;34570;51.836;5.002;2022-08-19T08:57:42;48.08;;;19.67;;
48765;SDS011;34570;51.836;5.002;2022-08-19T09:00:10;44.20;;;20.67;;
48765;SDS011;34570;51.836;5.002;2022-08-19T09:02:37;44.40;;;18.85;;
48765;SDS011;34570;51.836;5.002;2022-08-19T09:05:03;48.42;;;19.65;;
48765;SDS011;34570;51.836;5.002;2022-08-19T09:10:10;39.30;;;18.73;;
48765;SDS011;34570;51.836;5.002;2022-08-19T09:15:42;39.97;;;18.80;;
48765;SDS011;34570;51.836;5.002;2022-08-19T09:18:09;46.65;;;20.45;;
48765;SDS011;34570;51.836;5.002;2022-08-19T09:20:35;45.45;;;18.30;;
48765;SDS011;34570;51.836;5.002;2022-08-19T09:23:01;40.35;;;16.60;;
48765;SDS011;34570;51.836;5.002;2022-08-19T09:25:27;49.28;;;17.90;;
48765;SDS011;34570;51.836;5.002;2022-08-19T09:27:52;43.17;;;18.15;;
48765;SDS011;34570;51.836;5.002;2022-08-19T09:30:20;37.72;;;18.10;;
48765;SDS011;34570;51.836;5.002;2022-08-19T09:32:47;36.03;;;16.73;;
48765;SDS011;34570;51.836;5.002;2022-08-19T09:35:13;42.40;;;18.95;;
48765;SDS011;34570;51.836;5.002;2022-08-19T09:37:39;47.30;;;19.77;;
48765;SDS011;34570;51.836;5.002;2022-08-19T09:40:04;35.60;;;18.25;;
48765;SDS011;34570;51.836;5.002;2022-08-19T09:42:30;41.47;;;18.45;;
48765;SDS011;34570;51.836;5.002;2022-08-19T09:44:55;40.92;;;16.98;;
48765;SDS011;34570;51.836;5.002;2022-08-19T09:47:21;43.33;;;18.00;;
48765;SDS011;34570;51.836;5.002;2022-08-19T09:49:46;32.50;;;16.23;;
48765;SDS011;34570;51.836;5.002;2022-08-19T09:52:14;36.90;;;17.48;;
48765;SDS011;34570;51.836;5.002;2022-08-19T09:54:40;39.90;;;18.02;;
48765;SDS011;34570;51.836;5.002;2022-08-19T09:57:06;40.80;;;17.42;;
48765;SDS011;34570;51.836;5.002;2022-08-19T09:59:31;34.65;;;17.10;;
48765;SDS011;34570;51.836;5.002;2022-08-19T10:01:57;35.55;;;15.80;;
48765;SDS011;34570;51.836;5.002;2022-08-19T10:04:22;31.48;;;15.40;;
48765;SDS011;34570;51.836;5.002;2022-08-19T10:06:48;28.15;;;14.65;;
48765;SDS011;34570;51.836;5.002;2022-08-19T10:09:15;32.15;;;14.80;;
48765;SDS011;34570;51.836;5.002;2022-08-19T10:11:41;30.95;;;14.77;;
48765;SDS011;34570;51.836;5.002;2022-08-19T10:14:07;30.58;;;15.00;;
48765;SDS011;34570;51.836;5.002;2022-08-19T10:16:32;30.50;;;13.63;;
48765;SDS011;34570;51.836;5.002;2022-08-19T10:18:58;28.23;;;13.88;;
48765;SDS011;34570;51.836;5.002;2022-08-19T10:21:28;31.45;;;13.13;;
48765;SDS011;34570;51.836;5.002;2022-08-19T10:23:55;25.48;;;12.38;;
48765;SDS011;34570;51.836;5.002;2022-08-19T10:26:24;22.27;;;12.85;;
48765;SDS011;34570;51.836;5.002;2022-08-19T10:28:49;21.80;;;12.38;;
48765;SDS011;34570;51.836;5.002;2022-08-19T10:31:16;17.13;;;11.43;;
48765;SDS011;34570;51.836;5.002;2022-08-19T10:33:42;20.95;;;12.07;;
48765;SDS011;34570;51.836;5.002;2022-08-19T10:36:12;22.02;;;12.40;;
48765;SDS011;34570;51.836;5.002;2022-08-19T10:38:40;25.55;;;12.50;;
48765;SDS011;34570;51.836;5.002;2022-08-19T10:41:07;18.88;;;11.77;;
48765;SDS011;34570;51.836;5.002;2022-08-19T10:43:33;23.48;;;12.18;;
48765;SDS011;34570;51.836;5.002;2022-08-19T10:46:02;31.27;;;12.68;;
48765;SDS011;34570;51.836;5.002;2022-08-19T10:48:27;18.77;;;11.85;;
48765;SDS011;34570;51.836;5.002;2022-08-19T10:50:53;20.02;;;10.55;;
48765;SDS011;34570;51.836;5.002;2022-08-19T10:53:38;15.77;;;9.15;;
48765;SDS011;34570;51.836;5.002;2022-08-19T10:56:03;18.55;;;10.27;;
48765;SDS011;34570;51.836;5.002;2022-08-19T10:58:47;21.13;;;9.50;;
48765;SDS011;34570;51.836;5.002;2022-08-19T11:01:14;20.17;;;10.95;;
48765;SDS011;34570;51.836;5.002;2022-08-19T11:03:39;16.02;;;10.25;;
48765;SDS011;34570;51.836;5.002;2022-08-19T11:06:17;17.85;;;10.13;;
48765;SDS011;34570;51.836;5.002;2022-08-19T11:08:42;17.55;;;10.02;;
48765;SDS011;34570;51.836;5.002;2022-08-19T11:11:10;12.55;;;8.52;;
48765;SDS011;34570;51.836;5.002;2022-08-19T11:13:37;16.88;;;8.00;;
48765;SDS011;34570;51.836;5.002;2022-08-19T11:16:04;17.67;;;7.82;;
48765;SDS011;34570;51.836;5.002;2022-08-19T11:18:30;15.45;;;8.00;;
48765;SDS011;34570;51.836;5.002;2022-08-19T11:21:04;17.75;;;7.20;;
48765;SDS011;34570;51.836;5.002;2022-08-19T11:23:30;14.95;;;7.75;;
48765;SDS011;34570;51.836;5.002;2022-08-19T11:25:56;13.25;;;7.20;;
48765;SDS011;34570;51.836;5.002;2022-08-19T11:28:22;12.63;;;7.50;;
48765;SDS011;34570;51.836;5.002;2022-08-19T11:30:47;13.25;;;6.75;;
48765;SDS011;34570;51.836;5.002;2022-08-19T11:33:13;9.75;;;5.65;;
48765;SDS011;34570;51.836;5.002;2022-08-19T11:35:39;8.77;;;4.63;;
48765;SDS011;34570;51.836;5.002;2022-08-19T11:38:05;9.35;;;4.93;;
48765;SDS011;34570;51.836;5.002;2022-08-19T11:40:30;13.23;;;6.75;;
48765;SDS011;34570;51.836;5.002;2022-08-19T11:42:56;11.40;;;6.38;;
48765;SDS011;34570;51.836;5.002;2022-08-19T11:45:22;14.20;;;7.13;;
48765;SDS011;34570;51.836;5.002;2022-08-19T11:47:48;14.43;;;6.90;;
48765;SDS011;34570;51.836;5.002;2022-08-19T11:50:14;12.05;;;6.85;;
48765;SDS011;34570;51.836;5.002;2022-08-19T11:52:40;15.18;;;7.03;;
48765;SDS011;34570;51.836;5.002;2022-08-19T11:55:06;11.95;;;7.05;;
48765;SDS011;34570;51.836;5.002;2022-08-19T11:57:31;12.52;;;6.13;;
48765;SDS011;34570;51.836;5.002;2022-08-19T11:59:57;9.27;;;5.78;;
48765;SDS011;34570;51.836;5.002;2022-08-19T12:02:22;10.27;;;5.50;;
48765;SDS011;34570;51.836;5.002;2022-08-19T12:04:48;7.88;;;4.60;;
48765;SDS011;34570;51.836;5.002;2022-08-19T12:07:14;7.80;;;3.47;;
48765;SDS011;34570;51.836;5.002;2022-08-19T12:09:39;3.92;;;2.25;;
48765;SDS011;34570;51.836;5.002;2022-08-19T12:12:05;5.25;;;2.55;;
48765;SDS011;34570;51.836;5.002;2022-08-19T12:14:31;5.55;;;2.03;;
48765;SDS011;34570;51.836;5.002;2022-08-19T12:16:57;7.57;;;2.67;;
48765;SDS011;34570;51.836;5.002;2022-08-19T12:19:22;6.18;;;2.60;;
48765;SDS011;34570;51.836;5.002;2022-08-19T12:21:50;4.22;;;2.70;;
48765;SDS011;34570;51.836;5.002;2022-08-19T12:24:15;8.10;;;2.88;;
48765;SDS011;34570;51.836;5.002;2022-08-19T12:26:45;5.80;;;3.20;;
48765;SDS011;34570;51.836;5.002;2022-08-19T12:29:11;7.45;;;3.83;;
48765;SDS011;34570;51.836;5.002;2022-08-19T12:31:36;6.82;;;4.45;;
48765;SDS011;34570;51.836;5.002;2022-08-19T12:34:01;16.25;;;9.02;;
48765;SDS011;34570;51.836;5.002;2022-08-19T12:36:27;6.65;;;4.78;;
48765;SDS011;34570;51.836;5.002;2022-08-19T12:38:53;7.00;;;4.88;;
48765;SDS011;34570;51.836;5.002;2022-08-19T12:41:18;9.23;;;4.97;;
48765;SDS011;34570;51.836;5.002;2022-08-19T12:43:46;6.68;;;4.57;;
48765;SDS011;34570;51.836;5.002;2022-08-19T12:46:14;5.97;;;3.92;;
48765;SDS011;34570;51.836;5.002;2022-08-19T12:48:39;7.57;;;4.60;;
48765;SDS011;34570;51.836;5.002;2022-08-19T12:51:12;7.28;;;4.60;;
48765;SDS011;34570;51.836;5.002;2022-08-19T12:53:38;7.25;;;4.18;;
48765;SDS011;34570;51.836;5.002;2022-08-19T12:56:04;10.20;;;4.90;;
48765;SDS011;34570;51.836;5.002;2022-08-19T12:58:30;6.65;;;4.68;;
48765;SDS011;34570;51.836;5.002;2022-08-19T13:00:56;8.32;;;5.20;;
48765;SDS011;34570;51.836;5.002;2022-08-19T13:03:21;6.45;;;4.85;;
48765;SDS011;34570;51.836;5.002;2022-08-19T13:05:54;10.00;;;5.20;;
48765;SDS011;34570;51.836;5.002;2022-08-19T13:08:20;6.75;;;4.40;;
48765;SDS011;34570;51.836;5.002;2022-08-19T13:10:45;6.32;;;3.97;;
48765;SDS011;34570;51.836;5.002;2022-08-19T13:13:11;8.35;;;4.53;;
48765;SDS011;34570;51.836;5.002;2022-08-19T13:15:38;10.18;;;5.00;;
48765;SDS011;34570;51.836;5.002;2022-08-19T13:18:05;10.38;;;5.05;;
48765;SDS011;34570;51.836;5.002;2022-08-19T13:20:31;9.57;;;4.90;;
48765;SDS011;34570;51.836;5.002;2022-08-19T13:22:56;8.82;;;5.13;;
48765;SDS011;34570;51.836;5.002;2022-08-19T13:25:22;8.63;;;5.15;;
48765;SDS011;34570;51.836;5.002;2022-08-19T13:27:49;7.50;;;4.88;;
48765;SDS011;34570;51.836;5.002;2022-08-19T13:30:15;11.32;;;4.90;;
48765;SDS011;34570;51.836;5.002;2022-08-19T13:32:59;10.68;;;5.63;;
48765;SDS011;34570;51.836;5.002;2022-08-19T13:35:42;9.43;;;5.82;;
48765;SDS011;34570;51.836;5.002;2022-08-19T13:38:09;10.95;;;6.20;;
48765;SDS011;34570;51.836;5.002;2022-08-19T13:40:35;10.55;;;5.15;;
48765;SDS011;34570;51.836;5.002;2022-08-19T13:43:01;8.32;;;5.50;;
48765;SDS011;34570;51.836;5.002;2022-08-19T13:45:29;11.63;;;5.32;;
48765;SDS011;34570;51.836;5.002;2022-08-19T13:47:59;10.00;;;5.55;;
48765;SDS011;34570;51.836;5.002;2022-08-19T13:50:26;8.60;;;5.40;;
48765;SDS011;34570;51.836;5.002;2022-08-19T13:52:53;8.98;;;4.72;;
48765;SDS011;34570;51.836;5.002;2022-08-19T13:55:19;10.93;;;4.63;;
48765;SDS011;34570;51.836;5.002;2022-08-19T13:57:45;5.63;;;3.88;;
48765;SDS011;34570;51.836;5.002;2022-08-19T14:00:12;6.65;;;3.78;;
48765;SDS011;34570;51.836;5.002;2022-08-19T14:02:39;5.47;;;3.30;;
48765;SDS011;34570;51.836;5.002;2022-08-19T14:05:06;6.25;;;3.38;;
48765;SDS011;34570;51.836;5.002;2022-08-19T14:07:32;8.43;;;3.20;;
48765;SDS011;34570;51.836;5.002;2022-08-19T14:09:57;7.05;;;3.67;;
48765;SDS011;34570;51.836;5.002;2022-08-19T14:12:22;5.53;;;3.47;;
48765;SDS011;34570;51.836;5.002;2022-08-19T14:14:48;6.05;;;3.63;;
48765;SDS011;34570;51.836;5.002;2022-08-19T14:17:13;6.55;;;3.33;;
48765;SDS011;34570;51.836;5.002;2022-08-19T14:19:40;5.40;;;3.53;;
48765;SDS011;34570;51.836;5.002;2022-08-19T14:22:05;6.22;;;3.50;;
48765;SDS011;34570;51.836;5.002;2022-08-19T14:24:31;7.38;;;3.60;;
48765;SDS011;34570;51.836;5.002;2022-08-19T14:26:57;6.38;;;3.47;;
48765;SDS011;34570;51.836;5.002;2022-08-19T14:29:23;6.93;;;3.60;;
48765;SDS011;34570;51.836;5.002;2022-08-19T14:31:49;9.95;;;4.03;;
48765;SDS011;34570;51.836;5.002;2022-08-19T14:34:14;8.25;;;4.32;;
48765;SDS011;34570;51.836;5.002;2022-08-19T14:36:40;8.40;;;4.57;;
48765;SDS011;34570;51.836;5.002;2022-08-19T14:39:07;8.80;;;5.18;;